createdAt,value
2023-04-17T00:00:20.424Z,8.017578
2023-04-17T00:03:45.689Z,8.017578
2023-04-17T00:07:10.828Z,8.067932
2023-04-17T00:10:36.049Z,8.078003
2023-04-17T00:14:01.288Z,8.078003
2023-04-17T00:17:26.496Z,8.017578
2023-04-17T00:20:51.702Z,8.03772
2023-04-17T00:24:16.916Z,7.896729
2023-04-17T00:27:42.125Z,7.856445
2023-04-17T00:31:07.369Z,7.896729
2023-04-17T00:34:32.548Z,7.947083
2023-04-17T00:37:57.763Z,8.007507
2023-04-17T00:41:22.961Z,7.997437
2023-04-17T00:44:48.166Z,7.997437
2023-04-17T00:48:13.382Z,7.977295
2023-04-17T00:51:38.563Z,7.926941
2023-04-17T00:55:03.807Z,7.926941
2023-04-17T00:58:29.262Z,7.967224
2023-04-17T01:01:54.505Z,7.78595
2023-04-17T01:05:19.733Z,7.745667
2023-04-17T01:08:44.898Z,7.745667
2023-04-17T01:12:10.110Z,7.765808
2023-04-17T01:15:35.341Z,7.856445
2023-04-17T01:19:00.587Z,7.886658
2023-04-17T01:22:25.802Z,7.866516
2023-04-17T01:25:50.984Z,7.796021
2023-04-17T01:29:16.183Z,7.846375
2023-04-17T01:32:41.436Z,7.866516
2023-04-17T01:36:06.605Z,7.947083
2023-04-17T01:39:31.869Z,8.007507
2023-04-17T01:42:57.038Z,8.047791
2023-04-17T01:46:22.281Z,8.017578
2023-04-17T01:49:47.464Z,8.047791
2023-04-17T01:53:12.671Z,8.098145
2023-04-17T01:56:37.906Z,8.158569
2023-04-17T02:00:03.090Z,8.148499
2023-04-17T02:03:28.460Z,8.118286
2023-04-17T02:06:53.510Z,8.108215
2023-04-17T02:10:18.726Z,8.108215
2023-04-17T02:13:44.078Z,7.977295
2023-04-17T02:17:09.157Z,7.967224
2023-04-17T02:20:34.376Z,7.977295
2023-04-17T02:23:59.567Z,7.947083
2023-04-17T02:27:24.797Z,7.826233
2023-04-17T02:30:50.022Z,7.735596
2023-04-17T02:34:15.182Z,7.554321
2023-04-17T02:37:40.398Z,7.453613
2023-04-17T02:41:05.618Z,7.463684
2023-04-17T02:44:30.809Z,7.584534
2023-04-17T02:47:56.053Z,7.644958
2023-04-17T02:51:21.235Z,7.614746
2023-04-17T02:54:46.459Z,7.524109
2023-04-17T02:58:11.649Z,7.423401
2023-04-17T03:01:36.860Z,7.373047
2023-04-17T03:05:02.126Z,7.352905
2023-04-17T03:08:27.253Z,7.403259
2023-04-17T03:11:52.470Z,7.453613
2023-04-17T03:15:17.675Z,7.403259
2023-04-17T03:18:42.903Z,7.403259
2023-04-17T03:22:08.116Z,7.493896
2023-04-17T03:25:33.312Z,7.503967
2023-04-17T03:28:58.513Z,7.53418
2023-04-17T03:32:23.732Z,7.574463
2023-04-17T03:35:48.944Z,7.604675
2023-04-17T03:39:14.539Z,7.634888
2023-04-17T03:42:39.523Z,7.524109
2023-04-17T03:46:04.816Z,7.584534
2023-04-17T03:49:29.994Z,7.584534
2023-04-17T03:52:55.199Z,7.493896
2023-04-17T03:56:20.442Z,7.53418
2023-04-17T03:59:45.672Z,7.604675
2023-04-17T04:03:11.072Z,7.574463
2023-04-17T04:06:36.097Z,7.604675
2023-04-17T04:10:01.368Z,7.554321
2023-04-17T04:13:26.572Z,7.554321
2023-04-17T04:16:51.777Z,7.574463
2023-04-17T04:20:16.981Z,7.574463
2023-04-17T04:23:42.150Z,7.574463
2023-04-17T04:27:07.435Z,7.554321
2023-04-17T04:30:32.664Z,7.483826
2023-04-17T04:33:57.863Z,7.463684
2023-04-17T04:37:23.102Z,7.393188
2023-04-17T04:40:48.304Z,7.403259
2023-04-17T04:44:13.511Z,7.403259
2023-04-17T04:47:38.767Z,7.453613
2023-04-17T04:51:03.950Z,7.463684
2023-04-17T04:54:29.163Z,7.483826
2023-04-17T04:57:54.423Z,7.433472
2023-04-17T05:01:19.627Z,7.483826
2023-04-17T05:04:44.862Z,7.322693
2023-04-17T05:08:10.037Z,7.342834
2023-04-17T05:11:35.246Z,7.393188
2023-04-17T05:15:00.460Z,7.352905
2023-04-17T05:18:25.658Z,7.373047
2023-04-17T05:21:50.917Z,7.423401
2023-04-17T05:25:16.079Z,7.393188
2023-04-17T05:28:41.261Z,7.312622
2023-04-17T05:32:06.509Z,7.322693
2023-04-17T05:35:31.676Z,7.393188
2023-04-17T05:38:56.906Z,7.453613
2023-04-17T05:42:22.113Z,7.423401
2023-04-17T05:45:47.349Z,7.322693
2023-04-17T05:49:12.684Z,7.342834
2023-04-17T05:52:39.414Z,7.352905
2023-04-17T05:56:02.941Z,7.312622
2023-04-17T05:59:28.110Z,7.201843
2023-04-17T06:02:53.428Z,7.121277
2023-04-17T06:06:18.635Z,7.131348
2023-04-17T06:09:43.772Z,7.171631
2023-04-17T06:13:08.999Z,7.242126
2023-04-17T06:16:34.196Z,7.272339
2023-04-17T06:19:59.375Z,7.302551
2023-04-17T06:23:24.586Z,7.232056
2023-04-17T06:26:49.815Z,7.272339
2023-04-17T06:30:15.025Z,7.373047
2023-04-17T06:33:40.314Z,7.453613
2023-04-17T06:37:05.579Z,7.453613
2023-04-17T06:40:30.822Z,7.524109
2023-04-17T06:43:56.062Z,7.614746
2023-04-17T06:47:21.354Z,7.675171
2023-04-17T06:50:46.557Z,7.745667
2023-04-17T06:54:11.795Z,7.705383
2023-04-17T06:57:37.005Z,7.705383
2023-04-17T07:01:02.233Z,7.735596
2023-04-17T07:04:27.536Z,7.685242
2023-04-17T07:07:52.670Z,7.644958
2023-04-17T07:11:17.913Z,7.614746
2023-04-17T07:14:43.148Z,7.574463
2023-04-17T07:18:08.395Z,7.614746
2023-04-17T07:21:33.605Z,7.6651
2023-04-17T07:24:58.807Z,7.604675
2023-04-17T07:28:24.008Z,7.554321
2023-04-17T07:31:49.241Z,7.503967
2023-04-17T07:35:14.426Z,7.554321
2023-04-17T07:38:40.985Z,7.6651
2023-04-17T07:42:04.883Z,7.745667
2023-04-17T07:45:30.907Z,7.826233
2023-04-17T07:48:56.140Z,7.78595
2023-04-17T07:52:21.932Z,7.634888
2023-04-17T07:55:47.180Z,7.604675
2023-04-17T07:59:12.598Z,7.433472
2023-04-17T08:02:37.807Z,7.352905
2023-04-17T08:06:02.895Z,7.524109
2023-04-17T08:09:28.135Z,7.644958
2023-04-17T08:12:53.402Z,7.6651
2023-04-17T08:16:18.615Z,7.574463
2023-04-17T08:19:44.490Z,7.644958
2023-04-17T08:23:09.692Z,7.6651
2023-04-17T08:26:34.900Z,7.715454
2023-04-17T08:30:00.133Z,7.735596
2023-04-17T08:33:25.470Z,7.644958
2023-04-17T08:36:50.721Z,7.745667
2023-04-17T08:40:16.063Z,7.745667
2023-04-17T08:43:41.238Z,7.715454
2023-04-17T08:47:06.524Z,7.816162
2023-04-17T08:50:31.667Z,7.816162
2023-04-17T08:53:56.901Z,7.685242
2023-04-17T08:57:22.168Z,7.634888
2023-04-17T09:00:47.381Z,7.685242
2023-04-17T09:04:12.879Z,7.574463
2023-04-17T09:07:37.853Z,7.604675
2023-04-17T09:11:03.045Z,7.554321
2023-04-17T09:14:28.256Z,7.524109
2023-04-17T09:17:53.509Z,7.53418
2023-04-17T09:21:18.865Z,7.604675
2023-04-17T09:24:43.917Z,7.705383
2023-04-17T09:28:09.157Z,7.634888
2023-04-17T09:31:34.583Z,7.503967
2023-04-17T09:34:59.577Z,7.524109
2023-04-17T09:38:24.858Z,7.614746
2023-04-17T09:41:50.022Z,7.675171
2023-04-17T09:45:15.174Z,7.634888
2023-04-17T09:48:40.409Z,7.644958
2023-04-17T09:52:05.617Z,7.614746
2023-04-17T09:55:30.842Z,7.675171
2023-04-17T09:58:56.069Z,7.745667
2023-04-17T10:02:21.352Z,7.816162
2023-04-17T10:05:46.533Z,7.765808
2023-04-17T10:09:11.721Z,7.685242
2023-04-17T10:12:36.954Z,7.675171
2023-04-17T10:16:02.194Z,7.715454
2023-04-17T10:19:28.628Z,7.745667
2023-04-17T10:22:53.861Z,7.796021
2023-04-17T10:26:19.099Z,7.826233
2023-04-17T10:29:44.443Z,7.6651
2023-04-17T10:33:09.938Z,7.644958
2023-04-17T10:36:34.757Z,7.644958
2023-04-17T10:39:59.986Z,7.614746
2023-04-17T10:43:25.200Z,7.634888
2023-04-17T10:46:50.598Z,7.6651
2023-04-17T10:50:15.740Z,7.614746
2023-04-17T10:53:40.954Z,7.524109
2023-04-17T10:57:06.163Z,7.312622
2023-04-17T11:00:31.383Z,7.312622
2023-04-17T11:03:56.620Z,7.272339
2023-04-17T11:07:21.832Z,7.393188
2023-04-17T11:10:47.068Z,7.483826
2023-04-17T11:14:14.118Z,7.554321
2023-04-17T11:17:37.501Z,7.554321
2023-04-17T11:21:02.846Z,7.483826
2023-04-17T11:24:28.015Z,7.483826
2023-04-17T11:27:53.198Z,7.302551
2023-04-17T11:31:19.926Z,7.232056
2023-04-17T11:34:43.628Z,7.151489
2023-04-17T11:38:08.866Z,7.252197
2023-04-17T11:41:34.184Z,7.252197
2023-04-17T11:44:59.469Z,7.232056
2023-04-17T11:48:25.090Z,7.28241
2023-04-17T11:51:50.337Z,7.393188
2023-04-17T11:55:15.581Z,7.433472
2023-04-17T11:58:40.800Z,7.393188
2023-04-17T12:02:06.049Z,7.423401
2023-04-17T12:05:31.271Z,7.423401
2023-04-17T12:08:56.457Z,7.483826
2023-04-17T12:12:23.073Z,7.423401
2023-04-17T12:15:48.289Z,7.322693
2023-04-17T12:19:13.467Z,7.453613
2023-04-17T12:22:38.634Z,7.584534
2023-04-17T12:26:03.862Z,7.554321
2023-04-17T12:29:42.693Z,7.554321
2023-04-17T12:32:54.318Z,7.574463
2023-04-17T12:36:19.555Z,7.53418
2023-04-17T12:39:45.445Z,7.604675
2023-04-17T12:43:10.640Z,7.644958
2023-04-17T12:46:35.879Z,7.765808
2023-04-17T12:50:01.059Z,7.715454
2023-04-17T12:53:26.265Z,7.765808
2023-04-17T12:56:51.509Z,7.816162
2023-04-17T13:00:16.687Z,7.78595
2023-04-17T13:03:42.275Z,7.816162
2023-04-17T13:07:07.194Z,7.866516
2023-04-17T13:10:32.408Z,7.78595
2023-04-17T13:13:57.712Z,7.634888
2023-04-17T13:17:22.918Z,7.574463
2023-04-17T13:20:48.183Z,7.53418
2023-04-17T13:24:13.326Z,7.483826
2023-04-17T13:27:38.592Z,7.584534
2023-04-17T13:31:03.827Z,7.685242
2023-04-17T13:34:29.067Z,7.816162
2023-04-17T13:37:54.300Z,7.886658
2023-04-17T13:41:19.511Z,7.926941
2023-04-17T13:44:44.769Z,7.967224
2023-04-17T13:48:10.036Z,8.007507
2023-04-17T13:51:35.262Z,8.078003
2023-04-17T13:55:00.528Z,8.158569
2023-04-17T13:58:25.775Z,8.259277
2023-04-17T14:01:51.036Z,8.158569
2023-04-17T14:05:16.338Z,8.118286
2023-04-17T14:08:43.690Z,8.098145
2023-04-17T14:12:06.751Z,7.947083
2023-04-17T14:15:31.833Z,7.796021
2023-04-17T14:19:01.288Z,7.705383
2023-04-17T14:22:22.301Z,7.6651
2023-04-17T14:25:47.563Z,7.644958
2023-04-17T14:29:13.672Z,7.53418
2023-04-17T14:32:38.741Z,7.634888
2023-04-17T14:36:05.738Z,7.675171
2023-04-17T14:39:30.913Z,7.735596
2023-04-17T14:42:54.883Z,7.765808
2023-04-17T14:46:19.528Z,7.826233
2023-04-17T14:49:44.654Z,7.856445
2023-04-17T14:53:09.843Z,7.826233
2023-04-17T14:56:35.093Z,7.796021
2023-04-17T15:00:00.421Z,7.765808
2023-04-17T15:03:25.706Z,7.6651
2023-04-17T15:41:21.298Z,7.483826
2023-04-17T15:44:46.514Z,7.312622
2023-04-17T15:48:11.743Z,7.302551
2023-04-17T15:51:37.635Z,7.373047
2023-04-17T15:55:02.203Z,7.322693
2023-04-17T15:58:27.433Z,7.393188
2023-04-17T16:01:52.692Z,7.393188
2023-04-17T16:05:17.869Z,7.373047
2023-04-17T16:08:43.064Z,7.252197
2023-04-17T16:12:08.303Z,7.252197
2023-04-17T16:15:33.549Z,7.16156
2023-04-17T16:18:58.733Z,7.050781
2023-04-17T16:22:23.959Z,7.050781
2023-04-17T16:25:49.192Z,7.091064
2023-04-17T16:29:14.600Z,7.151489
2023-04-17T16:32:39.657Z,7.050781
2023-04-17T16:36:04.817Z,7.050781
2023-04-17T16:39:30.052Z,7.101135
2023-04-17T16:42:55.312Z,7.252197
2023-04-17T16:46:24.767Z,7.342834
2023-04-17T16:49:45.766Z,7.352905
2023-04-17T16:53:10.946Z,7.423401
2023-04-17T16:56:36.189Z,7.493896
2023-04-17T17:00:01.430Z,7.524109
2023-04-17T17:03:26.729Z,7.53418
2023-04-17T17:06:51.933Z,7.403259
2023-04-17T17:10:17.110Z,7.373047
2023-04-17T17:13:42.318Z,7.342834
2023-04-17T17:17:07.549Z,7.352905
2023-04-17T17:20:32.817Z,7.483826
2023-04-17T17:23:58.041Z,7.493896
2023-04-17T17:27:23.222Z,7.53418
2023-04-17T17:30:48.448Z,7.423401
2023-04-17T17:34:24.934Z,7.393188
2023-04-17T17:37:38.871Z,7.232056
2023-04-17T17:41:04.137Z,7.211914
2023-04-17T17:44:29.358Z,7.171631
2023-04-17T17:47:54.662Z,7.151489
2023-04-17T17:51:19.824Z,7.252197
2023-04-17T17:54:45.020Z,7.151489
2023-04-17T17:58:10.258Z,7.070923
2023-04-17T18:01:35.499Z,7.060852
2023-04-17T18:05:00.840Z,7.070923
2023-04-17T18:08:25.907Z,7.131348
2023-04-17T18:11:51.138Z,7.16156
2023-04-17T18:15:16.403Z,7.101135
2023-04-17T18:18:41.578Z,7.091064
2023-04-17T18:22:06.839Z,6.990356
2023-04-17T18:25:32.083Z,6.970215
2023-04-17T18:28:57.357Z,6.78894
2023-04-17T18:32:22.637Z,6.728516
2023-04-17T18:35:47.788Z,6.65802
2023-04-17T18:39:12.988Z,6.587524
2023-04-17T18:42:38.199Z,6.486816
2023-04-17T18:46:03.430Z,6.376038
2023-04-17T18:49:28.733Z,6.426392
2023-04-17T18:52:53.932Z,6.396179
2023-04-17T18:56:19.176Z,6.396179
2023-04-17T18:59:44.390Z,6.355896
2023-04-17T19:03:09.692Z,6.305542
2023-04-17T19:06:34.909Z,6.184692
2023-04-17T19:10:00.115Z,6.003418
2023-04-17T19:13:25.319Z,5.862427
2023-04-17T19:16:50.656Z,5.741577
2023-04-17T19:20:15.798Z,5.721436
2023-04-17T19:23:41.028Z,5.791931
2023-04-17T19:27:06.201Z,5.862427
2023-04-17T19:30:31.457Z,5.912781
2023-04-17T19:33:56.724Z,5.912781
2023-04-17T19:37:21.973Z,5.852356
2023-04-17T19:40:47.194Z,5.822144
2023-04-17T19:44:12.383Z,5.751648
2023-04-17T19:47:37.707Z,5.600586
2023-04-17T19:51:02.847Z,5.570374
2023-04-17T19:54:28.043Z,5.570374
2023-04-17T19:57:53.254Z,5.610657
2023-04-17T20:01:18.477Z,5.610657
2023-04-17T20:04:43.724Z,5.489807
2023-04-17T20:08:08.928Z,5.389099
2023-04-17T20:11:34.220Z,5.248108
2023-04-17T20:14:59.422Z,5.177612
2023-04-17T20:18:24.618Z,5.066833
2023-04-17T20:21:49.816Z,5.097046
2023-04-17T20:25:15.072Z,5.197754
2023-04-17T20:28:40.286Z,5.27832
2023-04-17T20:32:05.536Z,5.358887
2023-04-17T20:35:30.701Z,5.348816
2023-04-17T20:38:55.942Z,5.308533
2023-04-17T20:42:21.206Z,5.27832
2023-04-17T20:45:46.392Z,5.328674
2023-04-17T20:49:11.917Z,5.358887
2023-04-17T20:52:36.873Z,5.358887
2023-04-17T20:56:02.125Z,5.328674
2023-04-17T20:59:27.295Z,5.308533
2023-04-17T21:02:52.599Z,5.27832
2023-04-17T21:06:17.775Z,5.207825
2023-04-17T21:09:42.920Z,5.097046
2023-04-17T21:13:08.158Z,5.127258
2023-04-17T21:16:33.437Z,5.117188
2023-04-17T21:19:58.638Z,5.097046
2023-04-17T21:23:23.886Z,5.097046
2023-04-17T21:26:49.089Z,5.117188
2023-04-17T21:30:14.270Z,5.097046
2023-04-17T21:33:39.504Z,5.1474
2023-04-17T21:37:04.714Z,5.1474
2023-04-17T21:40:33.332Z,5.016479
2023-04-17T21:43:55.154Z,5.036621
2023-04-17T21:47:20.357Z,5.086975
2023-04-17T21:50:45.590Z,5.117188
2023-04-17T21:54:11.007Z,5.097046
2023-04-17T21:57:36.105Z,5.097046
2023-04-17T22:01:01.279Z,5.097046
2023-04-17T22:04:26.542Z,5.066833
2023-04-17T22:07:55.204Z,5.086975
2023-04-17T22:11:16.917Z,5.056763
2023-04-17T22:14:42.208Z,5.066833
2023-04-17T22:18:07.441Z,5.086975
2023-04-17T22:21:32.662Z,5.066833
2023-04-17T22:24:57.874Z,5.1474
2023-04-17T22:28:23.141Z,4.996338
2023-04-17T22:31:48.408Z,4.996338
2023-04-17T22:35:13.604Z,5.036621
2023-04-17T22:38:38.815Z,5.02655
2023-04-17T22:42:04.043Z,4.996338
2023-04-17T22:45:29.239Z,4.996338
2023-04-17T22:48:54.465Z,4.956055
2023-04-17T22:52:19.634Z,4.905701
2023-04-17T22:55:44.839Z,4.885559
2023-04-17T22:59:10.049Z,4.905701
2023-04-17T23:02:35.405Z,4.935913
2023-04-17T23:06:00.542Z,4.966125
2023-04-17T23:09:25.702Z,5.036621
2023-04-17T23:12:50.888Z,5.016479
2023-04-17T23:16:17.400Z,5.016479
2023-04-17T23:19:41.323Z,4.996338
2023-04-17T23:23:06.797Z,5.02655
2023-04-17T23:26:31.996Z,5.036621
2023-04-17T23:29:57.139Z,5.036621
2023-04-17T23:33:22.329Z,5.097046
2023-04-17T23:36:47.576Z,5.167542
2023-04-17T23:40:12.802Z,5.167542
2023-04-17T23:43:38.008Z,5.056763
2023-04-17T23:47:03.343Z,5.056763
2023-04-17T23:50:28.463Z,5.02655
2023-04-17T23:53:53.671Z,5.086975
2023-04-17T23:57:18.888Z,5.066833
